Panama City/Tyndall AFB, Florida
Current Conditions -  °F | °C
As of 12:58 PM on Saturday 25 Oct 2014 (Local Time) from KPAM Reporting Station
Clear Clear  
Wind Chill: 76°   Ceiling: Unl
Heat Index: 78°   Visibility: 10mi
Dew Point: 50°   Wind: 6mph
Humidity: 40%   Direction: NA
Pressure: 30.03"   Gusts: NA
Location:  30.06°N, 85.58°W
Report Text: KPAM 251758Z AUTO VRB05KT 10SM CLR 25/10 A3003 RMK AO2 SLP172 T02460101 10247 20130 58014 $
Loading
Personal Weather Stations






























Interactive Weather Map
Tropical Storm Tracking
New forecast layout! Learn more

10-Day Weather Forecast

Advertisements
Track Severe Weather on mobile